sensor_id;sensor_type;location;lat;lon;timestamp;temperature;humidity
11617;DHT22;5864;52.998;9.068;2022-08-01T00:00:42;19.90;99.90
11617;DHT22;5864;52.998;9.068;2022-08-01T00:03:10;19.90;99.90
11617;DHT22;5864;52.998;9.068;2022-08-01T00:05:38;19.90;99.90
11617;DHT22;5864;52.998;9.068;2022-08-01T00:08:05;19.90;99.90
11617;DHT22;5864;52.998;9.068;2022-08-01T00:10:33;19.80;99.90
11617;DHT22;5864;52.998;9.068;2022-08-01T00:13:00;19.80;99.90
11617;DHT22;5864;52.998;9.068;2022-08-01T00:15:28;19.80;99.90
11617;DHT22;5864;52.998;9.068;2022-08-01T00:17:57;19.80;99.90
11617;DHT22;5864;52.998;9.068;2022-08-01T00:20:24;19.80;99.90
11617;DHT22;5864;52.998;9.068;2022-08-01T00:22:52;19.70;99.90
11617;DHT22;5864;52.998;9.068;2022-08-01T00:25:19;19.60;99.90
11617;DHT22;5864;52.998;9.068;2022-08-01T00:27:47;19.60;99.90
11617;DHT22;5864;52.998;9.068;2022-08-01T00:30:14;19.70;99.90
11617;DHT22;5864;52.998;9.068;2022-08-01T00:32:42;19.70;99.90
11617;DHT22;5864;52.998;9.068;2022-08-01T00:35:11;19.70;99.90
11617;DHT22;5864;52.998;9.068;2022-08-01T00:37:39;19.70;99.90
11617;DHT22;5864;52.998;9.068;2022-08-01T00:40:07;19.70;99.90
11617;DHT22;5864;52.998;9.068;2022-08-01T00:42:35;19.60;99.90
11617;DHT22;5864;52.998;9.068;2022-08-01T00:45:03;19.60;99.90
11617;DHT22;5864;52.998;9.068;2022-08-01T00:47:31;19.60;99.90
11617;DHT22;5864;52.998;9.068;2022-08-01T00:49:58;19.60;99.90
11617;DHT22;5864;52.998;9.068;2022-08-01T00:52:27;19.60;99.90
11617;DHT22;5864;52.998;9.068;2022-08-01T00:54:54;19.50;99.90
11617;DHT22;5864;52.998;9.068;2022-08-01T00:57:22;19.60;99.90
11617;DHT22;5864;52.998;9.068;2022-08-01T00:59:49;19.60;99.90
11617;DHT22;5864;52.998;9.068;2022-08-01T01:02:18;19.50;99.90
11617;DHT22;5864;52.998;9.068;2022-08-01T01:04:45;19.50;99.90
11617;DHT22;5864;52.998;9.068;2022-08-01T01:07:19;19.50;99.90
11617;DHT22;5864;52.998;9.068;2022-08-01T01:09:54;19.50;99.90
11617;DHT22;5864;52.998;9.068;2022-08-01T01:12:28;19.40;99.90
11617;DHT22;5864;52.998;9.068;2022-08-01T01:15:02;19.30;99.90
11617;DHT22;5864;52.998;9.068;2022-08-01T01:17:35;19.30;99.90
11617;DHT22;5864;52.998;9.068;2022-08-01T01:20:05;19.40;99.90
11617;DHT22;5864;52.998;9.068;2022-08-01T01:22:55;19.40;99.90
11617;DHT22;5864;52.998;9.068;2022-08-01T01:25:38;19.40;99.90
11617;DHT22;5864;52.998;9.068;2022-08-01T01:28:15;19.40;99.90
11617;DHT22;5864;52.998;9.068;2022-08-01T01:30:47;19.40;99.90
11617;DHT22;5864;52.998;9.068;2022-08-01T01:33:16;19.30;99.90
11617;DHT22;5864;52.998;9.068;2022-08-01T01:35:47;19.40;99.90
11617;DHT22;5864;52.998;9.068;2022-08-01T01:38:18;19.40;99.90
11617;DHT22;5864;52.998;9.068;2022-08-01T01:40:48;19.40;99.90
11617;DHT22;5864;52.998;9.068;2022-08-01T01:43:18;19.40;99.90
11617;DHT22;5864;52.998;9.068;2022-08-01T01:45:48;19.40;99.90
11617;DHT22;5864;52.998;9.068;2022-08-01T01:48:18;19.50;99.90
11617;DHT22;5864;52.998;9.068;2022-08-01T01:50:47;19.50;99.90
11617;DHT22;5864;52.998;9.068;2022-08-01T01:53:20;19.40;99.90
11617;DHT22;5864;52.998;9.068;2022-08-01T01:55:50;19.40;99.90
11617;DHT22;5864;52.998;9.068;2022-08-01T01:58:20;19.40;99.90
11617;DHT22;5864;52.998;9.068;2022-08-01T02:00:52;19.40;99.90
11617;DHT22;5864;52.998;9.068;2022-08-01T02:03:21;19.40;99.90
11617;DHT22;5864;52.998;9.068;2022-08-01T02:05:49;19.40;99.90
11617;DHT22;5864;52.998;9.068;2022-08-01T02:08:18;19.40;99.90
11617;DHT22;5864;52.998;9.068;2022-08-01T02:10:46;19.40;99.90
11617;DHT22;5864;52.998;9.068;2022-08-01T02:13:29;19.30;99.90
11617;DHT22;5864;52.998;9.068;2022-08-01T02:15:58;19.30;99.90
11617;DHT22;5864;52.998;9.068;2022-08-01T02:18:26;19.30;99.90
11617;DHT22;5864;52.998;9.068;2022-08-01T02:20:55;19.30;99.90
11617;DHT22;5864;52.998;9.068;2022-08-01T02:23:27;19.30;99.90
11617;DHT22;5864;52.998;9.068;2022-08-01T02:25:58;19.30;99.90
11617;DHT22;5864;52.998;9.068;2022-08-01T02:28:30;19.20;99.90
11617;DHT22;5864;52.998;9.068;2022-08-01T02:31:02;19.20;99.90
11617;DHT22;5864;52.998;9.068;2022-08-01T02:33:37;19.20;99.90
11617;DHT22;5864;52.998;9.068;2022-08-01T02:36:06;19.20;99.90
11617;DHT22;5864;52.998;9.068;2022-08-01T02:38:37;19.20;99.90
11617;DHT22;5864;52.998;9.068;2022-08-01T02:41:07;19.10;99.90
11617;DHT22;5864;52.998;9.068;2022-08-01T02:43:38;19.10;99.90
11617;DHT22;5864;52.998;9.068;2022-08-01T02:46:08;19.10;99.90
11617;DHT22;5864;52.998;9.068;2022-08-01T02:48:40;19.00;99.90
11617;DHT22;5864;52.998;9.068;2022-08-01T02:51:09;19.00;99.90
11617;DHT22;5864;52.998;9.068;2022-08-01T02:53:40;18.90;99.90
11617;DHT22;5864;52.998;9.068;2022-08-01T02:56:10;18.90;99.90
11617;DHT22;5864;52.998;9.068;2022-08-01T02:58:39;18.80;99.90
11617;DHT22;5864;52.998;9.068;2022-08-01T03:01:10;18.90;99.90
11617;DHT22;5864;52.998;9.068;2022-08-01T03:03:38;18.80;99.90
11617;DHT22;5864;52.998;9.068;2022-08-01T03:06:06;18.80;99.90
11617;DHT22;5864;52.998;9.068;2022-08-01T03:08:35;18.80;99.90
11617;DHT22;5864;52.998;9.068;2022-08-01T03:11:04;18.80;99.90
11617;DHT22;5864;52.998;9.068;2022-08-01T03:13:33;18.80;99.90
11617;DHT22;5864;52.998;9.068;2022-08-01T03:16:02;18.80;99.90
11617;DHT22;5864;52.998;9.068;2022-08-01T03:18:33;18.80;99.90
11617;DHT22;5864;52.998;9.068;2022-08-01T03:21:04;18.80;99.90
11617;DHT22;5864;52.998;9.068;2022-08-01T03:23:34;18.80;99.90
11617;DHT22;5864;52.998;9.068;2022-08-01T03:26:03;18.80;99.90
11617;DHT22;5864;52.998;9.068;2022-08-01T03:28:32;18.80;99.90
11617;DHT22;5864;52.998;9.068;2022-08-01T03:31:00;18.80;99.90
11617;DHT22;5864;52.998;9.068;2022-08-01T03:33:29;18.70;99.90
11617;DHT22;5864;52.998;9.068;2022-08-01T03:35:59;18.70;99.90
11617;DHT22;5864;52.998;9.068;2022-08-01T03:38:30;18.70;99.90
11617;DHT22;5864;52.998;9.068;2022-08-01T03:41:09;18.70;99.90
11617;DHT22;5864;52.998;9.068;2022-08-01T03:43:41;18.70;99.90
11617;DHT22;5864;52.998;9.068;2022-08-01T03:46:15;18.70;99.90
11617;DHT22;5864;52.998;9.068;2022-08-01T03:48:48;18.60;99.90
11617;DHT22;5864;52.998;9.068;2022-08-01T03:51:18;18.70;99.90
11617;DHT22;5864;52.998;9.068;2022-08-01T03:53:47;18.60;99.90
11617;DHT22;5864;52.998;9.068;2022-08-01T03:56:18;18.60;99.90
11617;DHT22;5864;52.998;9.068;2022-08-01T03:58:46;18.70;99.90
11617;DHT22;5864;52.998;9.068;2022-08-01T04:01:15;18.70;99.90
11617;DHT22;5864;52.998;9.068;2022-08-01T04:03:43;18.70;99.90
11617;DHT22;5864;52.998;9.068;2022-08-01T04:06:11;18.70;99.90
11617;DHT22;5864;52.998;9.068;2022-08-01T04:08:41;18.70;99.90
11617;DHT22;5864;52.998;9.068;2022-08-01T04:11:09;18.70;99.90
11617;DHT22;5864;52.998;9.068;2022-08-01T04:13:36;18.70;99.90
11617;DHT22;5864;52.998;9.068;2022-08-01T04:16:04;18.60;99.90
11617;DHT22;5864;52.998;9.068;2022-08-01T04:18:32;18.70;99.90
11617;DHT22;5864;52.998;9.068;2022-08-01T04:20:59;18.60;99.90
11617;DHT22;5864;52.998;9.068;2022-08-01T04:23:27;18.70;99.90
11617;DHT22;5864;52.998;9.068;2022-08-01T04:25:59;18.70;99.90
11617;DHT22;5864;52.998;9.068;2022-08-01T04:28:32;18.70;99.90
11617;DHT22;5864;52.998;9.068;2022-08-01T04:31:01;18.80;99.90
11617;DHT22;5864;52.998;9.068;2022-08-01T04:33:31;18.60;99.90
11617;DHT22;5864;52.998;9.068;2022-08-01T04:36:04;18.60;99.90
11617;DHT22;5864;52.998;9.068;2022-08-01T04:38:34;18.60;99.90
11617;DHT22;5864;52.998;9.068;2022-08-01T04:41:05;18.70;99.90
11617;DHT22;5864;52.998;9.068;2022-08-01T04:43:33;18.80;99.90
11617;DHT22;5864;52.998;9.068;2022-08-01T04:46:02;18.80;99.90
11617;DHT22;5864;52.998;9.068;2022-08-01T04:48:31;18.90;99.90
11617;DHT22;5864;52.998;9.068;2022-08-01T04:51:00;18.90;99.90
11617;DHT22;5864;52.998;9.068;2022-08-01T04:53:28;18.70;99.90
11617;DHT22;5864;52.998;9.068;2022-08-01T04:55:58;18.70;99.90
11617;DHT22;5864;52.998;9.068;2022-08-01T04:58:28;18.70;99.90
11617;DHT22;5864;52.998;9.068;2022-08-01T05:00:55;18.70;99.90
11617;DHT22;5864;52.998;9.068;2022-08-01T05:03:23;18.70;99.90
11617;DHT22;5864;52.998;9.068;2022-08-01T05:05:50;18.80;99.90
11617;DHT22;5864;52.998;9.068;2022-08-01T05:08:18;18.80;99.90
11617;DHT22;5864;52.998;9.068;2022-08-01T05:10:46;18.80;99.90
11617;DHT22;5864;52.998;9.068;2022-08-01T05:13:14;18.80;99.90
11617;DHT22;5864;52.998;9.068;2022-08-01T05:15:43;18.80;99.90
11617;DHT22;5864;52.998;9.068;2022-08-01T05:18:10;18.80;99.90
11617;DHT22;5864;52.998;9.068;2022-08-01T05:20:38;18.80;99.90
11617;DHT22;5864;52.998;9.068;2022-08-01T05:23:06;18.70;99.90
11617;DHT22;5864;52.998;9.068;2022-08-01T05:25:33;18.60;99.90
11617;DHT22;5864;52.998;9.068;2022-08-01T05:28:00;18.70;99.90
11617;DHT22;5864;52.998;9.068;2022-08-01T05:30:28;18.60;99.90
11617;DHT22;5864;52.998;9.068;2022-08-01T05:32:57;18.70;99.90
11617;DHT22;5864;52.998;9.068;2022-08-01T05:35:25;18.60;99.90
11617;DHT22;5864;52.998;9.068;2022-08-01T05:37:52;18.60;99.90
11617;DHT22;5864;52.998;9.068;2022-08-01T05:40:20;18.50;99.90
11617;DHT22;5864;52.998;9.068;2022-08-01T05:42:47;18.50;99.90
11617;DHT22;5864;52.998;9.068;2022-08-01T05:45:15;18.50;99.90
11617;DHT22;5864;52.998;9.068;2022-08-01T05:47:42;18.60;99.90
11617;DHT22;5864;52.998;9.068;2022-08-01T05:50:11;18.60;99.90
11617;DHT22;5864;52.998;9.068;2022-08-01T05:52:39;18.60;99.90
11617;DHT22;5864;52.998;9.068;2022-08-01T05:55:07;18.60;99.90
11617;DHT22;5864;52.998;9.068;2022-08-01T05:57:35;18.50;99.90
11617;DHT22;5864;52.998;9.068;2022-08-01T06:00:03;18.40;99.90
11617;DHT22;5864;52.998;9.068;2022-08-01T06:02:31;18.50;99.90
11617;DHT22;5864;52.998;9.068;2022-08-01T06:04:58;18.50;99.90
11617;DHT22;5864;52.998;9.068;2022-08-01T06:07:27;18.50;99.90
11617;DHT22;5864;52.998;9.068;2022-08-01T06:09:55;18.50;99.90
11617;DHT22;5864;52.998;9.068;2022-08-01T06:12:22;18.50;99.90
11617;DHT22;5864;52.998;9.068;2022-08-01T06:14:50;18.40;99.90
11617;DHT22;5864;52.998;9.068;2022-08-01T06:17:17;18.30;99.90
11617;DHT22;5864;52.998;9.068;2022-08-01T06:19:45;18.40;99.90
11617;DHT22;5864;52.998;9.068;2022-08-01T06:22:12;18.40;99.90
11617;DHT22;5864;52.998;9.068;2022-08-01T06:24:41;18.50;99.90
11617;DHT22;5864;52.998;9.068;2022-08-01T06:27:09;18.50;99.90
11617;DHT22;5864;52.998;9.068;2022-08-01T06:29:36;18.50;99.90
11617;DHT22;5864;52.998;9.068;2022-08-01T06:32:04;18.60;99.90
11617;DHT22;5864;52.998;9.068;2022-08-01T06:34:32;18.60;99.90
11617;DHT22;5864;52.998;9.068;2022-08-01T06:36:59;18.60;99.90
11617;DHT22;5864;52.998;9.068;2022-08-01T06:39:27;18.60;99.90
11617;DHT22;5864;52.998;9.068;2022-08-01T06:41:56;18.60;99.90
11617;DHT22;5864;52.998;9.068;2022-08-01T06:44:23;18.60;99.90
11617;DHT22;5864;52.998;9.068;2022-08-01T06:46:51;18.60;99.90
11617;DHT22;5864;52.998;9.068;2022-08-01T06:49:18;18.70;99.90
11617;DHT22;5864;52.998;9.068;2022-08-01T06:51:46;18.80;99.90
11617;DHT22;5864;52.998;9.068;2022-08-01T06:54:13;18.90;99.90
11617;DHT22;5864;52.998;9.068;2022-08-01T06:56:42;18.90;99.90
11617;DHT22;5864;52.998;9.068;2022-08-01T06:59:11;18.90;99.90
11617;DHT22;5864;52.998;9.068;2022-08-01T07:01:38;18.90;99.90
11617;DHT22;5864;52.998;9.068;2022-08-01T07:04:06;18.90;99.90
11617;DHT22;5864;52.998;9.068;2022-08-01T07:06:33;18.80;99.90
11617;DHT22;5864;52.998;9.068;2022-08-01T07:09:01;18.90;99.90
11617;DHT22;5864;52.998;9.068;2022-08-01T07:11:29;18.70;99.90
11617;DHT22;5864;52.998;9.068;2022-08-01T07:13:57;18.60;99.90
11617;DHT22;5864;52.998;9.068;2022-08-01T07:16:26;18.50;99.90
11617;DHT22;5864;52.998;9.068;2022-08-01T07:18:53;18.50;99.90
11617;DHT22;5864;52.998;9.068;2022-08-01T07:21:21;18.50;99.90
11617;DHT22;5864;52.998;9.068;2022-08-01T07:23:48;18.50;99.90
11617;DHT22;5864;52.998;9.068;2022-08-01T07:26:16;18.40;99.90
11617;DHT22;5864;52.998;9.068;2022-08-01T07:28:43;18.50;99.90
11617;DHT22;5864;52.998;9.068;2022-08-01T07:31:11;18.60;99.90
11617;DHT22;5864;52.998;9.068;2022-08-01T07:33:40;18.70;99.90
11617;DHT22;5864;52.998;9.068;2022-08-01T07:36:07;18.60;99.90
11617;DHT22;5864;52.998;9.068;2022-08-01T07:38:35;18.70;99.90
11617;DHT22;5864;52.998;9.068;2022-08-01T07:41:02;18.70;99.90
11617;DHT22;5864;52.998;9.068;2022-08-01T07:43:30;18.70;99.90
11617;DHT22;5864;52.998;9.068;2022-08-01T07:45:57;18.60;99.90
11617;DHT22;5864;52.998;9.068;2022-08-01T07:48:24;18.50;99.90
11617;DHT22;5864;52.998;9.068;2022-08-01T07:50:54;18.60;99.90
11617;DHT22;5864;52.998;9.068;2022-08-01T07:53:22;18.60;99.90
11617;DHT22;5864;52.998;9.068;2022-08-01T07:55:50;18.50;99.90
11617;DHT22;5864;52.998;9.068;2022-08-01T07:58:18;18.50;99.90
11617;DHT22;5864;52.998;9.068;2022-08-01T08:00:45;18.50;99.90
11617;DHT22;5864;52.998;9.068;2022-08-01T08:03:12;18.40;99.90
11617;DHT22;5864;52.998;9.068;2022-08-01T08:05:40;18.50;99.90
11617;DHT22;5864;52.998;9.068;2022-08-01T08:08:09;18.50;99.90
11617;DHT22;5864;52.998;9.068;2022-08-01T08:10:37;18.50;99.90
11617;DHT22;5864;52.998;9.068;2022-08-01T08:13:05;18.60;99.90
11617;DHT22;5864;52.998;9.068;2022-08-01T08:15:32;18.70;99.90
11617;DHT22;5864;52.998;9.068;2022-08-01T08:18:01;18.80;99.90
11617;DHT22;5864;52.998;9.068;2022-08-01T08:20:29;18.60;99.90
11617;DHT22;5864;52.998;9.068;2022-08-01T08:22:57;18.60;99.90
11617;DHT22;5864;52.998;9.068;2022-08-01T08:25:26;18.50;99.90
11617;DHT22;5864;52.998;9.068;2022-08-01T08:27:54;18.60;99.90
11617;DHT22;5864;52.998;9.068;2022-08-01T08:30:22;18.60;99.90
11617;DHT22;5864;52.998;9.068;2022-08-01T08:32:50;18.80;99.90
11617;DHT22;5864;52.998;9.068;2022-08-01T08:35:17;19.10;99.90
11617;DHT22;5864;52.998;9.068;2022-08-01T08:37:45;19.10;99.90
11617;DHT22;5864;52.998;9.068;2022-08-01T08:40:14;19.20;99.90
11617;DHT22;5864;52.998;9.068;2022-08-01T08:42:44;19.40;99.90
11617;DHT22;5864;52.998;9.068;2022-08-01T08:45:12;19.50;99.90
11617;DHT22;5864;52.998;9.068;2022-08-01T08:47:41;20.20;99.90
11617;DHT22;5864;52.998;9.068;2022-08-01T08:50:12;20.80;99.90
11617;DHT22;5864;52.998;9.068;2022-08-01T08:52:40;21.40;99.90
11617;DHT22;5864;52.998;9.068;2022-08-01T08:55:09;21.90;99.90
11617;DHT22;5864;52.998;9.068;2022-08-01T08:57:41;21.90;99.90
11617;DHT22;5864;52.998;9.068;2022-08-01T09:00:14;21.90;99.90
11617;DHT22;5864;52.998;9.068;2022-08-01T09:02:42;22.10;99.90
11617;DHT22;5864;52.998;9.068;2022-08-01T09:05:10;22.10;99.90
11617;DHT22;5864;52.998;9.068;2022-08-01T09:07:38;22.00;99.90
11617;DHT22;5864;52.998;9.068;2022-08-01T09:10:07;22.20;99.90
11617;DHT22;5864;52.998;9.068;2022-08-01T09:12:36;22.40;99.90
11617;DHT22;5864;52.998;9.068;2022-08-01T09:15:05;22.80;99.90
11617;DHT22;5864;52.998;9.068;2022-08-01T09:17:41;23.20;99.90
11617;DHT22;5864;52.998;9.068;2022-08-01T09:20:22;23.40;99.90
11617;DHT22;5864;52.998;9.068;2022-08-01T09:22:50;24.00;99.90
11617;DHT22;5864;52.998;9.068;2022-08-01T09:25:18;24.80;99.90
11617;DHT22;5864;52.998;9.068;2022-08-01T09:27:46;25.10;99.90
11617;DHT22;5864;52.998;9.068;2022-08-01T09:30:15;24.80;99.90
11617;DHT22;5864;52.998;9.068;2022-08-01T09:32:55;25.00;99.90
11617;DHT22;5864;52.998;9.068;2022-08-01T09:35:24;25.40;99.90
11617;DHT22;5864;52.998;9.068;2022-08-01T09:37:51;25.80;99.90
11617;DHT22;5864;52.998;9.068;2022-08-01T09:40:19;26.10;99.90
11617;DHT22;5864;52.998;9.068;2022-08-01T09:42:46;26.10;99.90
11617;DHT22;5864;52.998;9.068;2022-08-01T09:45:33;26.10;99.90
11617;DHT22;5864;52.998;9.068;2022-08-01T09:48:08;25.80;99.90
11617;DHT22;5864;52.998;9.068;2022-08-01T09:50:40;26.10;99.90
11617;DHT22;5864;52.998;9.068;2022-08-01T09:53:08;26.40;99.90
11617;DHT22;5864;52.998;9.068;2022-08-01T09:55:36;26.80;99.90
11617;DHT22;5864;52.998;9.068;2022-08-01T09:58:04;26.90;98.10
11617;DHT22;5864;52.998;9.068;2022-08-01T10:00:32;27.00;97.80
11617;DHT22;5864;52.998;9.068;2022-08-01T10:03:20;27.50;96.80
11617;DHT22;5864;52.998;9.068;2022-08-01T10:05:48;26.90;96.90
11617;DHT22;5864;52.998;9.068;2022-08-01T10:08:16;27.10;95.60
11617;DHT22;5864;52.998;9.068;2022-08-01T10:11:07;27.20;95.50
11617;DHT22;5864;52.998;9.068;2022-08-01T10:13:36;27.00;94.90
11617;DHT22;5864;52.998;9.068;2022-08-01T10:16:05;27.40;95.80
11617;DHT22;5864;52.998;9.068;2022-08-01T10:18:35;27.90;95.40
11617;DHT22;5864;52.998;9.068;2022-08-01T10:21:04;28.00;96.20
11617;DHT22;5864;52.998;9.068;2022-08-01T10:23:34;28.30;94.60
11617;DHT22;5864;52.998;9.068;2022-08-01T10:26:04;28.50;94.30
11617;DHT22;5864;52.998;9.068;2022-08-01T10:28:34;27.90;93.50
11617;DHT22;5864;52.998;9.068;2022-08-01T10:31:03;27.80;94.90
11617;DHT22;5864;52.998;9.068;2022-08-01T10:33:30;27.80;93.60
11617;DHT22;5864;52.998;9.068;2022-08-01T10:35:59;28.10;93.10
11617;DHT22;5864;52.998;9.068;2022-08-01T10:38:28;27.50;91.10
11617;DHT22;5864;52.998;9.068;2022-08-01T10:40:56;27.40;92.60
11617;DHT22;5864;52.998;9.068;2022-08-01T10:43:24;27.40;93.20
11617;DHT22;5864;52.998;9.068;2022-08-01T10:45:52;27.80;92.60
11617;DHT22;5864;52.998;9.068;2022-08-01T10:48:22;27.80;93.70
11617;DHT22;5864;52.998;9.068;2022-08-01T10:50:53;28.40;93.30
11617;DHT22;5864;52.998;9.068;2022-08-01T10:53:25;28.70;92.80
11617;DHT22;5864;52.998;9.068;2022-08-01T10:56:00;29.00;93.00
11617;DHT22;5864;52.998;9.068;2022-08-01T10:58:30;28.80;90.90
11617;DHT22;5864;52.998;9.068;2022-08-01T11:01:18;28.90;91.00
11617;DHT22;5864;52.998;9.068;2022-08-01T11:04:02;28.80;90.20
11617;DHT22;5864;52.998;9.068;2022-08-01T11:06:41;28.50;90.00
11617;DHT22;5864;52.998;9.068;2022-08-01T11:09:26;28.10;88.40
11617;DHT22;5864;52.998;9.068;2022-08-01T11:11:59;28.20;90.20
11617;DHT22;5864;52.998;9.068;2022-08-01T11:14:27;28.40;90.60
11617;DHT22;5864;52.998;9.068;2022-08-01T11:16:55;28.30;91.20
11617;DHT22;5864;52.998;9.068;2022-08-01T11:19:23;28.40;90.70
11617;DHT22;5864;52.998;9.068;2022-08-01T11:22:00;28.40;91.50
11617;DHT22;5864;52.998;9.068;2022-08-01T11:24:57;28.30;88.60
11617;DHT22;5864;52.998;9.068;2022-08-01T11:27:26;27.70;88.90
11617;DHT22;5864;52.998;9.068;2022-08-01T11:30:22;27.90;90.60
11617;DHT22;5864;52.998;9.068;2022-08-01T11:32:53;28.20;90.20
11617;DHT22;5864;52.998;9.068;2022-08-01T11:35:21;28.50;87.80
11617;DHT22;5864;52.998;9.068;2022-08-01T11:37:51;28.40;87.40
11617;DHT22;5864;52.998;9.068;2022-08-01T11:40:24;28.40;90.30
11617;DHT22;5864;52.998;9.068;2022-08-01T11:43:16;28.50;89.60
11617;DHT22;5864;52.998;9.068;2022-08-01T11:45:48;28.50;89.60
11617;DHT22;5864;52.998;9.068;2022-08-01T11:48:20;28.80;89.00
11617;DHT22;5864;52.998;9.068;2022-08-01T11:50:50;28.50;88.50
11617;DHT22;5864;52.998;9.068;2022-08-01T11:53:18;28.60;88.90
11617;DHT22;5864;52.998;9.068;2022-08-01T11:55:48;28.80;88.70
11617;DHT22;5864;52.998;9.068;2022-08-01T11:58:20;29.10;88.70
11617;DHT22;5864;52.998;9.068;2022-08-01T12:00:51;29.30;85.70
11617;DHT22;5864;52.998;9.068;2022-08-01T12:03:24;29.00;82.30
11617;DHT22;5864;52.998;9.068;2022-08-01T12:05:53;29.00;85.70
11617;DHT22;5864;52.998;9.068;2022-08-01T12:08:25;29.10;82.00
11617;DHT22;5864;52.998;9.068;2022-08-01T12:10:54;28.00;86.90
11617;DHT22;5864;52.998;9.068;2022-08-01T12:13:21;28.40;85.00
11617;DHT22;5864;52.998;9.068;2022-08-01T12:15:49;28.60;83.90
11617;DHT22;5864;52.998;9.068;2022-08-01T12:18:17;28.90;84.60
11617;DHT22;5864;52.998;9.068;2022-08-01T12:20:45;28.80;79.70
11617;DHT22;5864;52.998;9.068;2022-08-01T12:23:14;28.80;82.60
11617;DHT22;5864;52.998;9.068;2022-08-01T12:25:42;28.90;82.30
11617;DHT22;5864;52.998;9.068;2022-08-01T12:28:12;29.10;85.20
11617;DHT22;5864;52.998;9.068;2022-08-01T12:30:40;28.80;84.60
11617;DHT22;5864;52.998;9.068;2022-08-01T12:33:09;28.70;82.70
11617;DHT22;5864;52.998;9.068;2022-08-01T12:35:40;28.60;83.80
11617;DHT22;5864;52.998;9.068;2022-08-01T12:38:14;28.10;81.20
11617;DHT22;5864;52.998;9.068;2022-08-01T12:40:44;27.00;87.90
11617;DHT22;5864;52.998;9.068;2022-08-01T12:43:18;26.80;86.20
11617;DHT22;5864;52.998;9.068;2022-08-01T12:45:49;26.60;85.90
11617;DHT22;5864;52.998;9.068;2022-08-01T12:48:18;26.50;87.40
11617;DHT22;5864;52.998;9.068;2022-08-01T12:50:47;26.60;87.40
11617;DHT22;5864;52.998;9.068;2022-08-01T12:53:15;26.80;88.80
11617;DHT22;5864;52.998;9.068;2022-08-01T12:55:45;26.90;89.10
11617;DHT22;5864;52.998;9.068;2022-08-01T12:58:14;27.30;85.50
11617;DHT22;5864;52.998;9.068;2022-08-01T13:00:46;27.50;86.30
11617;DHT22;5864;52.998;9.068;2022-08-01T13:03:15;27.60;83.80
11617;DHT22;5864;52.998;9.068;2022-08-01T13:05:45;27.80;86.00
11617;DHT22;5864;52.998;9.068;2022-08-01T13:08:14;27.40;82.90
11617;DHT22;5864;52.998;9.068;2022-08-01T13:10:42;26.90;85.60
11617;DHT22;5864;52.998;9.068;2022-08-01T13:13:11;26.40;88.30
11617;DHT22;5864;52.998;9.068;2022-08-01T13:15:39;26.40;88.60
11617;DHT22;5864;52.998;9.068;2022-08-01T13:18:32;26.70;88.00
11617;DHT22;5864;52.998;9.068;2022-08-01T13:21:10;26.50;89.10
11617;DHT22;5864;52.998;9.068;2022-08-01T13:23:38;26.70;89.40
11617;DHT22;5864;52.998;9.068;2022-08-01T13:26:06;26.80;89.30
11617;DHT22;5864;52.998;9.068;2022-08-01T13:28:34;27.10;88.50
11617;DHT22;5864;52.998;9.068;2022-08-01T13:31:04;27.00;84.60
11617;DHT22;5864;52.998;9.068;2022-08-01T13:33:42;26.90;85.50
11617;DHT22;5864;52.998;9.068;2022-08-01T13:36:10;26.60;87.40
11617;DHT22;5864;52.998;9.068;2022-08-01T13:38:38;26.20;87.30
11617;DHT22;5864;52.998;9.068;2022-08-01T13:41:23;26.50;90.00
11617;DHT22;5864;52.998;9.068;2022-08-01T13:43:51;26.50;89.40
11617;DHT22;5864;52.998;9.068;2022-08-01T13:46:18;26.60;87.40
11617;DHT22;5864;52.998;9.068;2022-08-01T13:48:47;26.50;89.30
11617;DHT22;5864;52.998;9.068;2022-08-01T13:51:15;26.40;87.10
11617;DHT22;5864;52.998;9.068;2022-08-01T13:53:42;26.50;87.20
11617;DHT22;5864;52.998;9.068;2022-08-01T13:56:10;26.60;86.30
11617;DHT22;5864;52.998;9.068;2022-08-01T13:58:37;26.60;85.90
11617;DHT22;5864;52.998;9.068;2022-08-01T14:01:04;26.00;87.30
11617;DHT22;5864;52.998;9.068;2022-08-01T14:03:32;25.50;86.70
11617;DHT22;5864;52.998;9.068;2022-08-01T14:06:02;25.80;90.70
11617;DHT22;5864;52.998;9.068;2022-08-01T14:08:29;25.90;90.30
11617;DHT22;5864;52.998;9.068;2022-08-01T14:10:57;26.10;87.20
11617;DHT22;5864;52.998;9.068;2022-08-01T14:13:25;26.00;86.10
11617;DHT22;5864;52.998;9.068;2022-08-01T14:15:53;26.10;86.20
11617;DHT22;5864;52.998;9.068;2022-08-01T14:18:20;26.20;86.30
11617;DHT22;5864;52.998;9.068;2022-08-01T14:20:48;25.70;88.10
11617;DHT22;5864;52.998;9.068;2022-08-01T14:23:17;25.30;88.70
11617;DHT22;5864;52.998;9.068;2022-08-01T14:25:44;24.80;90.90
11617;DHT22;5864;52.998;9.068;2022-08-01T14:28:12;25.00;91.50
11617;DHT22;5864;52.998;9.068;2022-08-01T14:30:39;25.20;91.10
11617;DHT22;5864;52.998;9.068;2022-08-01T14:33:08;25.60;90.80
11617;DHT22;5864;52.998;9.068;2022-08-01T14:35:36;25.60;90.90
11617;DHT22;5864;52.998;9.068;2022-08-01T14:38:04;25.40;90.10
11617;DHT22;5864;52.998;9.068;2022-08-01T14:40:33;24.80;90.40
11617;DHT22;5864;52.998;9.068;2022-08-01T14:43:00;24.40;91.70
11617;DHT22;5864;52.998;9.068;2022-08-01T14:45:28;24.20;92.80
11617;DHT22;5864;52.998;9.068;2022-08-01T14:47:55;24.70;91.50
11617;DHT22;5864;52.998;9.068;2022-08-01T14:50:23;24.80;91.10
11617;DHT22;5864;52.998;9.068;2022-08-01T14:52:53;25.00;91.50
11617;DHT22;5864;52.998;9.068;2022-08-01T14:55:20;24.10;91.60
11617;DHT22;5864;52.998;9.068;2022-08-01T14:57:52;24.10;91.20
11617;DHT22;5864;52.998;9.068;2022-08-01T15:00:20;24.20;92.40
11617;DHT22;5864;52.998;9.068;2022-08-01T15:02:47;24.50;92.30
11617;DHT22;5864;52.998;9.068;2022-08-01T15:05:15;24.60;91.50
11617;DHT22;5864;52.998;9.068;2022-08-01T15:07:42;24.30;90.60
11617;DHT22;5864;52.998;9.068;2022-08-01T15:10:10;23.80;91.80
11617;DHT22;5864;52.998;9.068;2022-08-01T15:12:38;24.10;92.30
11617;DHT22;5864;52.998;9.068;2022-08-01T15:15:08;24.30;90.90
11617;DHT22;5864;52.998;9.068;2022-08-01T15:17:36;24.30;91.00
11617;DHT22;5864;52.998;9.068;2022-08-01T15:20:05;24.00;91.10
11617;DHT22;5864;52.998;9.068;2022-08-01T15:22:34;23.90;91.70
11617;DHT22;5864;52.998;9.068;2022-08-01T15:25:01;24.00;92.10
11617;DHT22;5864;52.998;9.068;2022-08-01T15:27:29;23.80;91.30
11617;DHT22;5864;52.998;9.068;2022-08-01T15:29:57;23.90;91.70
11617;DHT22;5864;52.998;9.068;2022-08-01T15:32:26;23.70;91.80
11617;DHT22;5864;52.998;9.068;2022-08-01T15:34:53;23.90;92.10
11617;DHT22;5864;52.998;9.068;2022-08-01T15:37:21;23.80;91.20
11617;DHT22;5864;52.998;9.068;2022-08-01T15:39:49;23.70;92.50
11617;DHT22;5864;52.998;9.068;2022-08-01T15:42:17;23.60;92.50
11617;DHT22;5864;52.998;9.068;2022-08-01T15:44:44;23.80;92.20
11617;DHT22;5864;52.998;9.068;2022-08-01T15:47:12;23.60;91.60
11617;DHT22;5864;52.998;9.068;2022-08-01T15:49:40;23.40;90.90
11617;DHT22;5864;52.998;9.068;2022-08-01T15:52:08;23.10;93.00
11617;DHT22;5864;52.998;9.068;2022-08-01T15:54:36;23.30;93.80
11617;DHT22;5864;52.998;9.068;2022-08-01T15:57:06;23.40;92.30
11617;DHT22;5864;52.998;9.068;2022-08-01T15:59:34;23.30;93.10